Time;durP1;ratioP1;P1;durP2;ratioP2;P2;SDS_P1;SDS_P2;PMS_P1;PMS_P2;Temp;Humidity;BMP_temperature;BMP_pressure;BME280_temperature;BME280_humidity;BME280_pressure;Samples;Min_cycle;Max_cycle;Signal;HPM_P1;HPM_P2
2022/01/28 00:01:46;;;;;;;18.77;6.40;;;3.10;99.90;;;;;;4907698;29;19942;-58
2022/01/28 00:04:16;;;;;;;17.65;6.45;;;3.10;99.90;;;;;;4878475;29;20424;-60
2022/01/28 00:06:44;;;;;;;16.00;5.63;;;3.10;99.90;;;;;;4890655;29;20400;-61
2022/01/28 00:09:12;;;;;;;19.10;6.18;;;3.10;99.90;;;;;;4892128;29;20837;-60
2022/01/28 00:11:41;;;;;;;12.50;5.43;;;3.10;99.90;;;;;;4893497;29;20048;-59
2022/01/28 00:14:28;;;;;;;13.38;5.50;;;3.10;99.90;;;;;;4893573;29;20501;-60
2022/01/28 00:38:58;;;;;;;12.48;5.15;;;3.10;99.90;;;;;;4892303;29;20064;-59
2022/01/28 00:41:26;;;;;;;13.98;4.72;;;3.00;99.90;;;;;;4893166;29;20056;-60
2022/01/28 00:43:54;;;;;;;13.15;4.90;;;3.00;99.90;;;;;;4892992;29;20404;-63
2022/01/28 00:46:22;;;;;;;18.60;5.45;;;3.00;99.90;;;;;;4893114;29;20063;-62
2022/01/28 00:48:50;;;;;;;10.05;4.97;;;3.00;99.90;;;;;;4893153;29;20053;-62
2022/01/28 00:51:18;;;;;;;15.15;5.18;;;3.00;99.90;;;;;;4892061;29;20485;-61
2022/01/28 00:53:45;;;;;;;10.48;4.10;;;3.00;99.90;;;;;;4893075;29;20052;-65
2022/01/28 00:56:13;;;;;;;8.32;3.88;;;2.90;99.90;;;;;;4893265;29;20052;-61
2022/01/28 00:58:41;;;;;;;13.48;4.93;;;3.00;99.90;;;;;;4893336;29;20056;-62
2022/01/28 01:01:09;;;;;;;12.38;4.70;;;3.00;99.90;;;;;;4892738;29;20068;-64
2022/01/28 01:03:37;;;;;;;20.27;5.97;;;2.90;99.90;;;;;;4889715;29;20064;-61
2022/01/28 01:06:06;;;;;;;18.10;5.70;;;2.90;99.90;;;;;;4889911;29;20107;-61
2022/01/28 01:08:34;;;;;;;17.17;5.22;;;2.90;99.90;;;;;;4892740;29;20489;-62
2022/01/28 01:11:01;;;;;;;11.55;4.85;;;2.90;99.90;;;;;;4893150;29;20048;-58
2022/01/28 01:13:35;;;;;;;15.32;4.28;;;2.80;99.90;;;;;;4895332;29;20072;-58
2022/01/28 01:16:05;;;;;;;11.45;4.63;;;2.80;99.90;;;;;;4896756;29;20427;-58
2022/01/28 01:18:43;;;;;;;14.98;4.93;;;2.80;99.90;;;;;;4879365;29;20138;-59
2022/01/28 01:21:21;;;;;;;12.70;5.25;;;2.80;99.90;;;;;;4896714;29;20056;-61
2022/01/28 01:23:55;;;;;;;13.88;4.60;;;2.70;99.90;;;;;;4895398;29;20063;-60
2022/01/28 01:26:31;;;;;;;13.60;5.15;;;2.80;99.90;;;;;;4896323;29;20060;-59
2022/01/28 01:29:01;;;;;;;13.57;4.28;;;2.70;99.90;;;;;;4896235;29;20044;-63
2022/01/28 01:31:29;;;;;;;8.23;4.40;;;2.70;99.90;;;;;;4896663;29;20206;-59
2022/01/28 01:36:25;;;;;;;13.07;4.03;;;2.60;99.90;;;;;;4896205;29;20044;-59
2022/01/28 01:38:53;;;;;;;12.35;3.53;;;2.60;99.90;;;;;;4896170;29;20520;-59
2022/01/28 01:41:34;;;;;;;11.27;4.20;;;2.50;99.90;;;;;;4896322;29;20052;-60
2022/01/28 01:44:18;;;;;;;12.00;4.50;;;2.50;99.90;;;;;;4896416;29;20064;-59
2022/01/28 01:52:37;;;;;;;9.85;3.80;;;2.50;99.90;;;;;;4896161;29;20052;-58
2022/01/28 01:55:07;;;;;;;7.57;3.67;;;2.50;99.90;;;;;;4895826;29;20049;-60
2022/01/28 01:57:35;;;;;;;9.10;2.95;;;2.40;99.90;;;;;;4895975;29;20614;-62
2022/01/28 02:00:05;;;;;;;10.85;3.33;;;2.50;99.90;;;;;;4896225;29;20053;-64
2022/01/28 02:02:35;;;;;;;8.90;3.17;;;2.40;99.90;;;;;;4895937;29;20404;-62
2022/01/28 02:05:05;;;;;;;11.18;3.45;;;2.50;99.90;;;;;;4895684;29;20071;-66
2022/01/28 02:07:34;;;;;;;13.38;3.95;;;2.50;99.90;;;;;;4894585;29;20063;-65
2022/01/28 02:10:02;;;;;;;8.50;2.65;;;2.50;99.90;;;;;;4896107;29;20049;-66
2022/01/28 02:12:51;;;;;;;12.55;3.33;;;2.50;99.90;;;;;;4897299;29;20052;-65
2022/01/28 02:15:19;;;;;;;8.98;3.10;;;2.50;99.90;;;;;;4898198;29;20049;-64
2022/01/28 02:17:47;;;;;;;10.75;3.42;;;2.50;99.90;;;;;;4880191;29;20064;-59
2022/01/28 02:20:30;;;;;;;12.27;3.88;;;2.60;99.90;;;;;;4894651;29;20036;-63
2022/01/28 02:22:58;;;;;;;11.35;2.67;;;2.60;99.90;;;;;;4895365;29;20256;-59
2022/01/28 02:25:28;;;;;;;5.60;2.50;;;2.60;99.90;;;;;;4895021;29;20052;-63
2022/01/28 02:28:00;;;;;;;8.30;3.55;;;2.60;99.90;;;;;;4894094;29;20524;-63
2022/01/28 02:30:28;;;;;;;8.23;2.75;;;2.60;99.90;;;;;;4898323;29;20488;-62
2022/01/28 02:33:07;;;;;;;11.25;3.22;;;2.60;99.90;;;;;;4898722;29;20056;-63
2022/01/28 02:35:36;;;;;;;8.10;2.53;;;2.60;99.90;;;;;;4898530;29;20401;-63
2022/01/28 02:38:04;;;;;;;8.77;3.10;;;2.70;99.90;;;;;;4898387;29;20049;-64
2022/01/28 02:40:32;;;;;;;3.30;2.00;;;2.60;99.90;;;;;;4898388;29;20052;-62
2022/01/28 02:43:14;;;;;;;8.48;2.67;;;2.70;99.90;;;;;;4898354;29;20056;-62
2022/01/28 02:45:45;;;;;;;8.35;2.80;;;2.70;99.90;;;;;;4901385;29;20523;-63
2022/01/28 02:48:53;;;;;;;10.98;2.83;;;2.70;99.90;;;;;;4916517;29;20048;-59
2022/01/28 02:51:16;;;;;;;8.77;3.03;;;2.80;99.90;;;;;;4916165;29;20063;-59
2022/01/28 02:53:55;;;;;;;10.80;2.88;;;2.80;99.90;;;;;;4917218;29;20048;-59
2022/01/28 02:56:38;;;;;;;10.45;3.08;;;3.00;99.90;;;;;;4917153;29;20070;-58
2022/01/28 02:59:07;;;;;;;13.65;3.22;;;3.10;99.90;;;;;;4916608;29;20051;-59
2022/01/28 03:01:34;;;;;;;13.68;3.28;;;3.10;99.90;;;;;;4916974;29;20425;-60
2022/01/28 03:04:04;;;;;;;7.72;2.63;;;3.20;99.90;;;;;;4916958;29;20048;-61
2022/01/28 03:06:32;;;;;;;16.70;3.45;;;3.20;99.90;;;;;;4915417;29;20056;-58
2022/01/28 03:09:21;;;;;;;11.07;3.17;;;3.30;99.90;;;;;;4916886;29;20400;-59
2022/01/28 03:12:00;;;;;;;5.97;2.28;;;3.40;99.90;;;;;;4916556;29;20052;-60
2022/01/28 03:14:47;;;;;;;5.70;2.72;;;3.40;99.90;;;;;;4915463;29;20045;-60
2022/01/28 03:17:47;;;;;;;12.52;3.08;;;3.50;99.90;;;;;;4916708;29;20052;-60
2022/01/28 03:22:54;;;;;;;7.63;2.50;;;3.50;99.90;;;;;;4906087;29;20067;-60
2022/01/28 03:25:22;;;;;;;8.07;2.40;;;3.60;99.90;;;;;;4916514;29;20048;-60
2022/01/28 03:27:58;;;;;;;11.88;2.30;;;3.60;99.90;;;;;;4916265;29;20063;-58
2022/01/28 03:30:27;;;;;;;5.40;2.35;;;3.60;99.90;;;;;;4901049;29;20059;-63
2022/01/28 03:32:55;;;;;;;9.38;2.85;;;3.60;99.90;;;;;;4916408;29;20055;-60
2022/01/28 03:35:31;;;;;;;5.60;2.20;;;3.60;99.90;;;;;;4916424;29;20075;-59
2022/01/28 03:38:00;;;;;;;8.73;1.83;;;3.50;99.90;;;;;;4916386;29;20538;-60
2022/01/28 03:40:33;;;;;;;12.25;2.70;;;3.50;99.90;;;;;;4916216;29;20396;-63
2022/01/28 03:43:02;;;;;;;13.38;2.92;;;3.50;99.90;;;;;;4916357;29;20650;-60
2022/01/28 03:45:30;;;;;;;11.40;2.37;;;3.40;99.90;;;;;;4916171;29;20047;-64
2022/01/28 03:47:58;;;;;;;11.38;2.25;;;3.40;99.90;;;;;;4916200;29;20063;-63
2022/01/28 03:50:26;;;;;;;11.20;2.20;;;3.40;99.90;;;;;;4916063;29;20051;-62
2022/01/28 03:52:54;;;;;;;4.93;1.98;;;3.40;99.90;;;;;;4916107;29;20507;-63
2022/01/28 03:55:22;;;;;;;7.03;2.30;;;3.40;99.90;;;;;;4916072;29;20500;-65
2022/01/28 03:57:49;;;;;;;12.80;2.78;;;3.40;99.90;;;;;;4916419;29;20066;-63
2022/01/28 04:00:17;;;;;;;9.35;2.55;;;3.40;99.90;;;;;;4915852;29;20055;-65
2022/01/28 04:02:47;;;;;;;8.60;2.03;;;3.30;99.90;;;;;;4916046;29;20051;-64
2022/01/28 04:13:35;;;;;;;6.07;2.40;;;3.10;99.90;;;;;;4915847;29;20057;-65
2022/01/28 04:16:16;;;;;;;11.05;3.35;;;3.10;99.90;;;;;;4915753;29;20052;-65
2022/01/28 04:18:44;;;;;;;11.23;2.90;;;3.00;99.90;;;;;;4914506;29;20078;-63
2022/01/28 04:21:13;;;;;;;7.05;2.70;;;3.00;99.90;;;;;;4915557;29;20055;-66
2022/01/28 04:23:41;;;;;;;11.85;2.30;;;3.00;99.90;;;;;;4915653;29;20055;-64
2022/01/28 04:26:16;;;;;;;8.07;2.67;;;3.00;99.90;;;;;;4915614;29;20055;-66
2022/01/28 04:28:45;;;;;;;6.43;1.88;;;3.00;99.90;;;;;;4915409;29;20075;-63
2022/01/28 04:31:13;;;;;;;7.35;3.10;;;3.00;99.90;;;;;;4915419;29;20492;-66
2022/01/28 04:33:41;;;;;;;9.52;2.60;;;3.00;99.90;;;;;;4915524;29;20476;-66
2022/01/28 04:36:11;;;;;;;10.73;2.78;;;3.00;99.90;;;;;;4915554;29;20048;-64
2022/01/28 04:38:49;;;;;;;10.80;2.90;;;3.10;99.90;;;;;;4915457;29;20052;-66
2022/01/28 04:41:28;;;;;;;13.20;3.38;;;3.20;99.90;;;;;;4914314;29;20045;-65
2022/01/28 04:44:04;;;;;;;10.35;2.47;;;3.20;99.90;;;;;;4914334;29;20056;-66
2022/01/28 04:46:43;;;;;;;8.23;3.13;;;3.30;99.90;;;;;;4915806;29;20494;-63
2022/01/28 04:49:44;;;;;;;10.05;3.78;;;3.30;99.90;;;;;;4921131;29;20059;-65
2022/01/28 04:52:43;;;;;;;6.95;3.67;;;3.40;99.90;;;;;;4922035;29;20051;-66
2022/01/28 04:55:30;;;;;;;11.75;3.20;;;3.40;99.90;;;;;;4922151;29;20048;-65
2022/01/28 05:04:16;;;;;;;11.88;3.50;;;3.50;99.90;;;;;;4913389;29;20056;-59
2022/01/28 05:26:24;;;;;;;7.68;2.95;;;3.70;99.90;;;;;;4921217;29;20064;-60
2022/01/28 05:28:53;;;;;;;12.15;2.80;;;3.70;99.90;;;;;;4921180;29;20055;-60
2022/01/28 05:31:21;;;;;;;9.20;3.45;;;3.70;99.90;;;;;;4921111;29;20052;-60
2022/01/28 05:33:49;;;;;;;7.20;2.95;;;3.80;99.90;;;;;;4921276;29;20044;-59
2022/01/28 05:36:17;;;;;;;10.98;3.78;;;3.80;99.90;;;;;;4921266;29;20048;-60
2022/01/28 05:38:44;;;;;;;12.50;3.47;;;3.80;99.90;;;;;;4904122;29;20067;-58
2022/01/28 05:41:13;;;;;;;15.18;3.78;;;3.70;99.90;;;;;;4921315;29;20048;-58
2022/01/28 05:43:41;;;;;;;10.95;3.33;;;3.80;99.90;;;;;;4921205;29;20055;-58
2022/01/28 05:46:09;;;;;;;13.25;3.33;;;3.80;99.90;;;;;;4921116;29;20048;-58
2022/01/28 05:48:38;;;;;;;10.70;2.90;;;3.80;99.90;;;;;;4905114;29;20060;-60
2022/01/28 05:51:05;;;;;;;8.48;3.33;;;3.80;99.90;;;;;;4898837;29;20048;-58
2022/01/28 05:53:36;;;;;;;13.93;3.45;;;3.70;99.90;;;;;;4898902;29;20056;-59
2022/01/28 05:56:05;;;;;;;14.13;3.43;;;3.70;99.90;;;;;;4899018;29;20112;-58
2022/01/28 05:58:33;;;;;;;5.70;3.42;;;3.70;99.90;;;;;;4898850;29;20869;-61
2022/01/28 06:01:02;;;;;;;5.60;3.08;;;3.60;99.90;;;;;;4894911;29;20052;-60
2022/01/28 06:03:30;;;;;;;6.53;3.20;;;3.60;99.90;;;;;;4887327;29;20044;-59
2022/01/28 06:05:58;;;;;;;16.48;3.80;;;3.60;99.90;;;;;;4911639;29;20535;-58
2022/01/28 06:08:26;;;;;;;16.02;4.50;;;3.60;99.90;;;;;;4901871;29;20515;-58
2022/01/28 06:10:54;;;;;;;7.03;3.35;;;3.50;99.90;;;;;;4894947;29;20064;-58
2022/01/28 06:13:22;;;;;;;14.43;4.25;;;3.50;99.90;;;;;;4892507;29;20059;-58
2022/01/28 06:15:56;;;;;;;7.70;3.63;;;3.40;99.90;;;;;;4893381;29;20497;-59
2022/01/28 06:18:23;;;;;;;8.73;3.63;;;3.40;99.90;;;;;;4895920;29;20412;-63
2022/01/28 06:20:51;;;;;;;17.10;4.47;;;3.30;99.90;;;;;;4895608;29;20061;-65
2022/01/28 06:23:19;;;;;;;11.48;4.30;;;3.30;99.90;;;;;;4895508;29;20048;-65
2022/01/28 06:25:49;;;;;;;9.70;4.13;;;3.30;99.90;;;;;;4895674;29;20052;-64
2022/01/28 06:28:17;;;;;;;8.13;4.30;;;3.30;99.90;;;;;;4895070;29;20376;-60
2022/01/28 06:30:44;;;;;;;15.25;4.75;;;3.30;99.90;;;;;;4894671;29;20052;-60
2022/01/28 06:33:13;;;;;;;14.82;5.38;;;3.30;99.90;;;;;;4895479;29;20772;-61
2022/01/28 06:35:42;;;;;;;12.38;5.25;;;3.30;99.90;;;;;;4894590;29;20040;-60
2022/01/28 06:38:11;;;;;;;11.93;4.78;;;3.30;99.90;;;;;;4892029;29;20056;-60
2022/01/28 06:40:39;;;;;;;12.75;5.45;;;3.30;99.90;;;;;;4891268;29;20525;-61
2022/01/28 06:43:12;;;;;;;13.95;5.22;;;3.40;99.90;;;;;;4893835;29;20531;-60
2022/01/28 06:45:42;;;;;;;16.00;4.93;;;3.40;99.90;;;;;;4894557;29;20048;-61
2022/01/28 06:48:11;;;;;;;15.57;5.35;;;3.40;99.90;;;;;;4892198;29;20048;-58
2022/01/28 06:50:42;;;;;;;13.47;5.03;;;3.50;99.90;;;;;;4892287;29;20063;-58
2022/01/28 06:53:11;;;;;;;12.88;4.55;;;3.50;99.90;;;;;;4894849;29;20393;-59
2022/01/28 06:55:39;;;;;;;15.27;4.57;;;3.50;99.90;;;;;;4894963;29;20068;-58
2022/01/28 06:58:08;;;;;;;13.05;5.78;;;3.50;99.90;;;;;;4894796;29;20060;-59
2022/01/28 07:00:37;;;;;;;13.20;5.68;;;3.50;99.90;;;;;;4894170;29;20059;-59
2022/01/28 07:03:10;;;;;;;14.65;6.18;;;3.60;99.90;;;;;;4890403;29;20044;-65
2022/01/28 07:05:39;;;;;;;16.75;6.45;;;3.60;99.90;;;;;;4891884;29;20056;-64
2022/01/28 07:08:08;;;;;;;12.20;7.27;;;3.60;99.90;;;;;;4894538;29;20048;-64
2022/01/28 07:10:36;;;;;;;14.02;6.15;;;3.60;99.90;;;;;;4894504;29;20059;-66
2022/01/28 07:13:04;;;;;;;21.17;6.47;;;3.60;99.90;;;;;;4893068;29;20044;-65
2022/01/28 07:15:33;;;;;;;16.85;6.72;;;3.50;99.90;;;;;;4893834;29;20059;-63
2022/01/28 07:18:02;;;;;;;16.02;7.15;;;3.50;99.90;;;;;;4893342;29;20045;-65
2022/01/28 07:20:31;;;;;;;20.70;7.00;;;3.50;99.90;;;;;;4894624;29;20057;-62
2022/01/28 07:22:59;;;;;;;20.77;6.90;;;3.50;99.90;;;;;;4895240;29;20569;-66
2022/01/28 07:25:27;;;;;;;19.05;6.78;;;3.40;99.90;;;;;;4894605;29;20053;-65
2022/01/28 07:27:55;;;;;;;17.33;7.13;;;3.40;99.90;;;;;;4894427;29;20413;-66
2022/01/28 07:30:23;;;;;;;13.32;6.50;;;3.40;99.90;;;;;;4893681;29;20377;-66
2022/01/28 07:32:52;;;;;;;13.60;6.22;;;3.30;99.90;;;;;;4892348;29;20086;-65
2022/01/28 07:35:20;;;;;;;12.85;6.05;;;3.30;99.90;;;;;;4891925;29;20531;-61
2022/01/28 07:37:48;;;;;;;21.92;5.88;;;3.20;99.90;;;;;;4891219;29;20555;-62
2022/01/28 07:40:16;;;;;;;17.58;6.88;;;3.20;99.90;;;;;;4890046;29;20075;-62
2022/01/28 07:42:44;;;;;;;19.23;6.47;;;3.10;99.90;;;;;;4894070;29;20048;-62
2022/01/28 07:45:16;;;;;;;16.73;7.57;;;3.10;99.90;;;;;;4894440;29;20052;-62
2022/01/28 07:47:44;;;;;;;13.52;6.30;;;3.00;99.90;;;;;;4890941;29;20044;-62
2022/01/28 07:50:14;;;;;;;17.10;8.02;;;3.00;99.90;;;;;;4890933;29;20044;-62
2022/01/28 07:52:43;;;;;;;18.35;7.47;;;3.00;99.90;;;;;;4892428;29;20045;-59
2022/01/28 07:55:12;;;;;;;15.35;6.82;;;3.00;99.90;;;;;;4894037;29;20052;-63
2022/01/28 07:57:41;;;;;;;18.40;7.32;;;3.00;99.90;;;;;;4893392;29;20065;-62
2022/01/28 08:00:12;;;;;;;21.13;7.05;;;2.90;99.90;;;;;;4893589;29;20052;-62
2022/01/28 08:02:42;;;;;;;17.15;6.95;;;2.90;99.90;;;;;;4890836;29;20053;-62
2022/01/28 08:05:11;;;;;;;29.02;8.27;;;2.90;99.90;;;;;;4890290;29;20055;-62
2022/01/28 08:07:39;;;;;;;29.30;8.13;;;2.90;99.90;;;;;;4892419;29;20060;-60
2022/01/28 08:10:08;;;;;;;14.93;6.95;;;2.90;99.90;;;;;;4893789;29;20484;-60
2022/01/28 08:12:47;;;;;;;16.98;6.68;;;2.90;99.90;;;;;;4892430;29;20267;-61
2022/01/28 08:15:16;;;;;;;16.48;6.43;;;2.90;99.90;;;;;;4892785;29;20388;-60
2022/01/28 08:17:45;;;;;;;15.27;7.07;;;2.90;99.90;;;;;;4890735;29;20047;-59
2022/01/28 08:20:13;;;;;;;16.33;7.63;;;3.00;99.90;;;;;;4891802;29;20052;-60
2022/01/28 08:22:52;;;;;;;18.58;8.00;;;3.00;99.90;;;;;;4891813;29;20048;-58
2022/01/28 08:25:22;;;;;;;18.13;7.15;;;3.00;99.90;;;;;;4892798;29;20056;-60
2022/01/28 08:27:50;;;;;;;;;;;3.10;99.90;;;;;;4891513;29;20057;-63
2022/01/28 08:30:23;;;;;;;21.30;7.18;;;3.10;99.90;;;;;;4892881;29;19923;-59
2022/01/28 08:32:52;;;;;;;13.55;6.22;;;3.10;99.90;;;;;;4893170;29;20052;-62
2022/01/28 08:35:30;;;;;;;25.70;7.20;;;3.20;99.90;;;;;;4893659;29;20127;-60
2022/01/28 08:37:59;;;;;;;23.40;8.57;;;3.20;99.90;;;;;;4893203;29;20067;-64
2022/01/28 08:40:28;;;;;;;17.75;8.05;;;3.30;99.90;;;;;;4893359;29;20075;-61
2022/01/28 08:42:56;;;;;;;17.50;6.55;;;3.40;99.90;;;;;;4893115;29;20064;-63
2022/01/28 08:45:24;;;;;;;23.08;6.65;;;3.40;99.90;;;;;;4893124;29;20048;-64
2022/01/28 08:47:52;;;;;;;14.20;6.70;;;3.40;99.90;;;;;;4893069;29;20517;-60
2022/01/28 08:50:20;;;;;;;19.42;7.30;;;3.40;99.90;;;;;;4893570;29;20398;-61
2022/01/28 08:52:49;;;;;;;19.25;8.73;;;3.50;99.90;;;;;;4892902;29;20052;-63
2022/01/28 08:55:16;;;;;;;22.45;7.82;;;3.50;99.90;;;;;;4893330;29;20504;-59
2022/01/28 08:57:44;;;;;;;18.70;6.90;;;3.50;99.90;;;;;;4893220;29;20052;-58
2022/01/28 09:00:17;;;;;;;23.55;8.07;;;3.60;99.90;;;;;;4897048;29;20055;-58
2022/01/28 09:02:45;;;;;;;24.95;7.05;;;3.60;99.90;;;;;;4904812;29;20040;-62
2022/01/28 09:05:13;;;;;;;28.10;7.13;;;3.70;99.90;;;;;;4909680;29;20512;-60
2022/01/28 09:07:41;;;;;;;21.23;8.32;;;3.70;99.90;;;;;;4907204;29;20510;-58
2022/01/28 09:10:17;;;;;;;14.80;6.72;;;3.80;99.90;;;;;;4905920;29;20460;-61
2022/01/28 09:13:10;;;;;;;17.88;7.32;;;3.80;99.90;;;;;;4908948;29;20048;-63
2022/01/28 09:15:40;;;;;;;21.23;6.88;;;3.80;99.90;;;;;;4908600;29;20447;-60
2022/01/28 09:18:12;;;;;;;16.40;6.90;;;3.90;99.90;;;;;;4906484;29;20410;-61
2022/01/28 09:20:40;;;;;;;16.02;6.75;;;3.90;99.90;;;;;;4904869;29;20044;-62
2022/01/28 09:23:09;;;;;;;17.92;7.32;;;4.00;99.90;;;;;;4901409;29;20476;-64
2022/01/28 09:25:37;;;;;;;22.67;8.35;;;4.00;99.90;;;;;;4904128;29;20044;-63
2022/01/28 09:28:06;;;;;;;17.08;7.18;;;4.00;99.90;;;;;;4909483;29;20051;-62
2022/01/28 09:30:34;;;;;;;18.80;7.50;;;4.20;99.90;;;;;;4911557;29;20063;-61
2022/01/28 09:33:03;;;;;;;14.82;7.50;;;4.20;99.90;;;;;;4904232;29;20503;-62
2022/01/28 09:35:31;;;;;;;22.10;8.63;;;4.20;99.90;;;;;;4912420;29;20062;-61
2022/01/28 09:37:59;;;;;;;15.65;8.00;;;4.30;99.90;;;;;;4914683;29;20059;-58
2022/01/28 09:40:27;;;;;;;18.08;8.20;;;4.30;99.90;;;;;;4915106;29;20539;-59
2022/01/28 09:42:55;;;;;;;18.60;8.27;;;4.30;99.90;;;;;;4908189;29;20406;-60
2022/01/28 09:45:24;;;;;;;17.52;7.72;;;4.40;99.90;;;;;;4915063;29;20395;-59
2022/01/28 09:47:55;;;;;;;18.60;7.55;;;4.40;99.90;;;;;;4915095;29;20055;-59
2022/01/28 09:50:25;;;;;;;17.02;7.45;;;4.50;99.90;;;;;;4902498;29;20071;-58
2022/01/28 09:52:56;;;;;;;8.20;4.35;;;4.40;99.90;;;;;;4902581;29;20423;-59
2022/01/28 09:55:25;;;;;;;11.32;5.70;;;4.60;99.90;;;;;;4914849;29;20059;-65
2022/01/28 09:57:56;;;;;;;14.43;6.75;;;4.60;99.90;;;;;;4908679;29;20060;-63
2022/01/28 10:00:25;;;;;;;11.65;5.82;;;4.70;99.90;;;;;;4895942;29;20493;-64
2022/01/28 10:02:55;;;;;;;12.07;4.85;;;4.70;99.90;;;;;;4914194;29;20059;-65
2022/01/28 10:05:25;;;;;;;12.25;4.53;;;4.80;99.90;;;;;;4905028;29;20515;-65
2022/01/28 10:08:02;;;;;;;12.38;4.90;;;4.90;99.90;;;;;;4896065;29;20052;-62
2022/01/28 10:11:16;;;;;;;9.52;3.88;;;5.00;99.90;;;;;;4910271;29;20040;-65
2022/01/28 10:13:50;;;;;;;11.40;4.97;;;5.10;99.90;;;;;;4898331;29;20052;-61
2022/01/28 10:16:20;;;;;;;9.25;4.43;;;5.20;99.90;;;;;;4895743;29;20044;-60
2022/01/28 10:18:54;;;;;;;12.77;4.68;;;5.20;99.90;;;;;;4895463;29;20052;-61
2022/01/28 10:21:35;;;;;;;11.23;4.72;;;5.30;99.90;;;;;;4908474;29;20052;-59
2022/01/28 10:24:06;;;;;;;10.48;4.47;;;5.40;99.90;;;;;;4913937;29;20044;-61
2022/01/28 10:26:42;;;;;;;11.70;4.32;;;5.50;99.90;;;;;;4914107;29;20052;-61
2022/01/28 10:29:35;;;;;;;10.27;4.72;;;5.60;99.90;;;;;;4909796;29;20053;-61
2022/01/28 10:32:06;;;;;;;8.75;4.38;;;5.60;99.90;;;;;;4894125;29;20053;-61
2022/01/28 10:34:35;;;;;;;11.48;4.13;;;5.70;99.90;;;;;;4895647;29;20084;-61
2022/01/28 10:37:28;;;;;;;12.02;4.78;;;5.70;99.90;;;;;;4913776;29;20052;-62
2022/01/28 10:40:06;;;;;;;12.02;4.35;;;5.80;99.90;;;;;;4914018;29;20060;-61
2022/01/28 10:42:40;;;;;;;9.18;3.65;;;5.80;99.90;;;;;;4914199;29;20052;-63
2022/01/28 10:45:12;;;;;;;6.47;3.95;;;5.80;99.90;;;;;;4913486;29;20040;-63
2022/01/28 10:47:53;;;;;;;10.77;3.97;;;5.90;99.90;;;;;;4910679;29;20072;-65
2022/01/28 10:50:35;;;;;;;10.52;4.15;;;5.90;99.90;;;;;;4912358;29;20040;-60
2022/01/28 10:53:08;;;;;;;8.27;4.28;;;6.00;99.90;;;;;;4900711;29;20059;-61
2022/01/28 10:55:49;;;;;;;6.60;3.47;;;6.00;99.90;;;;;;4893860;29;20063;-61
2022/01/28 10:58:19;;;;;;;6.57;4.00;;;6.10;99.90;;;;;;4895073;29;20045;-62
2022/01/28 11:00:50;;;;;;;6.53;4.00;;;6.20;99.90;;;;;;4894983;29;20064;-59
2022/01/28 11:03:26;;;;;;;6.72;3.47;;;6.20;99.90;;;;;;4894814;29;20051;-60
2022/01/28 11:05:58;;;;;;;10.65;3.80;;;6.20;99.90;;;;;;4895352;29;20068;-60
2022/01/28 11:08:29;;;;;;;8.60;4.18;;;6.30;99.90;;;;;;4894870;29;20052;-61
2022/01/28 11:10:58;;;;;;;7.63;4.28;;;6.30;99.90;;;;;;4894619;29;20420;-59
2022/01/28 11:13:26;;;;;;;12.73;4.47;;;6.40;99.90;;;;;;4894283;29;20481;-59
2022/01/28 11:15:54;;;;;;;13.75;4.97;;;6.50;99.90;;;;;;4894655;29;20044;-61
2022/01/28 11:18:23;;;;;;;9.02;4.55;;;6.60;99.90;;;;;;4894541;29;20047;-61
2022/01/28 11:20:58;;;;;;;8.05;3.92;;;6.60;99.90;;;;;;4893394;29;20067;-60
2022/01/28 11:23:35;;;;;;;12.38;4.93;;;6.70;99.90;;;;;;4894403;29;20055;-61
2022/01/28 11:26:35;;;;;;;11.00;5.10;;;6.80;99.90;;;;;;4894540;29;20636;-59
2022/01/28 11:29:12;;;;;;;9.73;4.65;;;6.90;99.90;;;;;;4893895;29;20052;-59
2022/01/28 11:31:47;;;;;;;10.38;4.82;;;7.00;99.90;;;;;;4877737;29;20053;-57
2022/01/28 11:34:29;;;;;;;8.43;4.45;;;7.10;99.90;;;;;;4893992;29;20059;-58
2022/01/28 11:37:16;;;;;;;11.93;4.43;;;7.30;99.90;;;;;;4894669;29;20493;-58
2022/01/28 11:39:47;;;;;;;8.02;4.30;;;7.40;99.90;;;;;;4892540;29;20056;-60
2022/01/28 11:42:29;;;;;;;7.53;3.85;;;7.50;99.90;;;;;;4890751;29;20416;-59
2022/01/28 11:45:00;;;;;;;10.88;3.78;;;7.60;99.90;;;;;;4891303;29;20049;-60
2022/01/28 11:47:52;;;;;;;10.73;3.90;;;7.80;99.90;;;;;;4900370;29;20059;-58
2022/01/28 11:50:23;;;;;;;8.18;3.40;;;7.90;99.90;;;;;;4912448;29;20048;-61
2022/01/28 11:52:53;;;;;;;6.70;3.28;;;8.00;99.90;;;;;;4904671;29;20424;-59
2022/01/28 11:55:21;;;;;;;5.53;3.00;;;8.20;99.90;;;;;;4894125;29;20048;-58
2022/01/28 11:58:11;;;;;;;9.45;3.08;;;8.30;99.90;;;;;;4901620;29;20064;-58
2022/01/28 12:00:43;;;;;;;4.78;2.35;;;8.50;99.90;;;;;;4912384;29;20431;-58
2022/01/28 12:03:22;;;;;;;5.80;2.65;;;8.70;99.90;;;;;;4901002;29;20052;-58
2022/01/28 12:05:54;;;;;;;8.15;2.63;;;8.80;99.90;;;;;;4912328;29;20507;-59
2022/01/28 12:08:27;;;;;;;6.60;2.00;;;8.90;99.90;;;;;;4902111;29;20059;-58
2022/01/28 12:10:55;;;;;;;3.03;1.35;;;9.00;99.90;;;;;;4892761;29;20052;-59
2022/01/28 12:14:04;;;;;;;4.72;2.33;;;9.00;99.90;;;;;;4893254;29;20048;-58
2022/01/28 12:16:41;;;;;;;4.47;1.65;;;9.10;99.90;;;;;;4893555;29;20381;-58
2022/01/28 12:19:22;;;;;;;8.00;1.98;;;9.10;99.90;;;;;;4901170;29;20052;-58
2022/01/28 12:22:07;;;;;;;4.13;1.27;;;9.20;99.90;;;;;;4911736;29;20130;-58
2022/01/28 12:24:37;;;;;;;6.93;2.05;;;9.20;99.90;;;;;;4910040;29;20051;-58
2022/01/28 12:27:13;;;;;;;6.97;1.65;;;9.20;99.90;;;;;;4911797;29;20048;-58
2022/01/28 12:29:50;;;;;;;3.42;1.60;;;9.30;99.90;;;;;;4912382;29;20060;-66
2022/01/28 12:32:25;;;;;;;3.92;1.40;;;9.40;99.90;;;;;;4910009;29;20453;-64
2022/01/28 12:34:53;;;;;;;4.72;1.40;;;9.50;99.90;;;;;;4898109;29;20056;-64
2022/01/28 12:37:23;;;;;;;2.50;1.60;;;9.60;99.90;;;;;;4907600;29;20048;-65
2022/01/28 12:40:02;;;;;;;;;;;9.60;99.90;;;;;;4893284;29;20064;-65
2022/01/28 12:42:32;;;;;;;3.80;1.27;;;9.60;99.90;;;;;;4892567;29;19927;-64
2022/01/28 12:45:01;;;;;;;4.72;1.60;;;9.60;99.90;;;;;;4894352;29;20064;-62
2022/01/28 12:47:33;;;;;;;5.97;2.08;;;9.50;99.90;;;;;;4909956;29;20052;-61
2022/01/28 12:50:04;;;;;;;5.82;1.77;;;9.50;99.90;;;;;;4893297;29;20052;-59
2022/01/28 12:52:34;;;;;;;17.33;1.67;;;9.40;99.90;;;;;;4910352;29;20075;-59
2022/01/28 12:55:03;;;;;;;;;;;9.30;99.90;;;;;;4903206;29;20059;-60
2022/01/28 12:57:31;;;;;;;6.57;2.00;;;9.30;99.90;;;;;;4911337;29;22174;-59
2022/01/28 13:00:00;;;;;;;4.13;1.73;;;9.30;99.90;;;;;;4911930;29;20052;-60
2022/01/28 13:02:34;;;;;;;5.13;1.20;;;9.20;99.90;;;;;;4910186;29;20063;-64
2022/01/28 13:10:32;;;;;;;3.38;1.77;;;9.10;99.90;;;;;;4905451;29;20381;-59
2022/01/28 13:13:09;;;;;;;4.40;1.98;;;9.10;99.90;;;;;;4911862;29;20048;-65
2022/01/28 13:15:37;;;;;;;5.95;2.08;;;9.10;99.90;;;;;;4912821;29;20052;-64
2022/01/28 13:18:07;;;;;;;3.15;1.45;;;9.10;99.90;;;;;;4907267;29;20448;-59
2022/01/28 13:20:41;;;;;;;3.85;2.00;;;9.20;99.90;;;;;;4900251;29;20048;-59
2022/01/28 13:23:11;;;;;;;5.55;2.03;;;9.20;99.90;;;;;;4909005;29;20496;-63
2022/01/28 13:25:40;;;;;;;5.10;1.75;;;9.30;99.90;;;;;;4898133;29;20047;-61
2022/01/28 13:28:15;;;;;;;3.90;1.50;;;9.30;99.90;;;;;;4905190;29;20067;-65
2022/01/28 13:30:56;;;;;;;3.25;1.30;;;9.30;99.90;;;;;;4915517;29;20047;-65
2022/01/28 13:33:29;;;;;;;4.53;1.50;;;9.30;99.90;;;;;;4896268;29;20048;-63
2022/01/28 13:36:01;;;;;;;5.97;1.20;;;9.30;99.90;;;;;;4896145;29;20063;-64
2022/01/28 13:38:39;;;;;;;3.53;1.30;;;9.30;99.90;;;;;;4896514;29;20511;-60
2022/01/28 13:41:25;;;;;;;5.95;1.65;;;9.30;99.90;;;;;;4880188;29;20080;-64
2022/01/28 13:44:00;;;;;;;2.78;1.48;;;9.20;99.90;;;;;;4914576;29;20055;-63
2022/01/28 13:46:34;;;;;;;3.50;1.52;;;9.30;99.90;;;;;;4913557;29;20407;-62
2022/01/28 13:49:12;;;;;;;4.03;2.08;;;9.30;99.90;;;;;;4914830;29;20052;-65
2022/01/28 13:51:39;;;;;;;2.75;1.45;;;9.30;99.90;;;;;;4914572;29;20635;-64
2022/01/28 13:56:42;;;;;;;4.47;1.40;;;9.30;99.90;;;;;;4907324;29;20051;-60
2022/01/28 13:59:20;;;;;;;3.53;1.70;;;9.30;99.90;;;;;;4899601;29;20065;-60
2022/01/28 14:01:50;;;;;;;7.20;2.35;;;9.30;99.90;;;;;;4901805;29;20048;-59
2022/01/28 14:04:23;;;;;;;8.32;1.80;;;9.40;99.90;;;;;;4895954;29;20048;-62
2022/01/28 14:07:10;;;;;;;6.55;1.73;;;9.40;99.90;;;;;;4909119;29;20071;-62
2022/01/28 14:09:46;;;;;;;5.53;1.60;;;9.40;99.90;;;;;;4912554;29;20492;-61
2022/01/28 14:12:42;;;;;;;6.50;2.00;;;9.40;99.90;;;;;;4913365;29;20598;-58
2022/01/28 14:15:40;;;;;;;3.90;1.35;;;9.40;99.90;;;;;;4914095;29;20066;-62
2022/01/28 14:18:08;;;;;;;4.35;1.52;;;9.50;99.90;;;;;;4911297;29;20496;-58
2022/01/28 14:20:36;;;;;;;4.53;1.77;;;9.50;99.90;;;;;;4912179;29;20428;-59
2022/01/28 14:23:04;;;;;;;2.83;1.48;;;9.50;99.90;;;;;;4912075;29;20078;-59
2022/01/28 14:25:31;;;;;;;6.28;1.30;;;9.60;99.90;;;;;;4909805;29;20049;-61
2022/01/28 14:30:36;;;;;;;2.90;1.38;;;9.70;99.90;;;;;;4909543;29;20055;-59
2022/01/28 14:33:04;;;;;;;3.35;1.30;;;9.70;99.90;;;;;;4906618;29;20056;-64
2022/01/28 14:35:35;;;;;;;4.68;1.58;;;9.70;99.90;;;;;;4900175;29;20060;-58
2022/01/28 14:38:04;;;;;;;5.57;1.77;;;9.70;99.90;;;;;;4908197;29;20045;-61